Gulkana Airport
PAGK : rendu visible

Aérodrome :











RETROUVEZ-NOUS SUR...

 
LOGIN :

S'inscrire | Disclaimer

   EN    FR    IT 

 









Légende :    VFR   VFR Marginal   IFR   IFR Intensif   IFR Très Intensif
Visi : 
Plafond : 
>= 8 km
>= 3000ft
5 à 8 km
1000 à 3000 ft
1500m à 5 km
500 à 1000 ft
800 à 1500m
200 à 500 ft
< 800m
< 200 ft
Symboles :   Orages  Brouillard  Fortes neiges  Fortes précipitations  Vent > 20 kt






- Altitude de l'aérodrome : 1586 ft
- Code IATA : GKN


PAGK - Gulkana

DERNIER METAR :
  • 030053Z AUTO 15019G29KT 10SM CLR 16/M01 A2967 RMK AO2 PK WND 16029/0045 SLP054 T01561006 TSNO

METARs EXPIRÉS :
  • 022353Z AUTO 14017G25KT 10SM FEW070 15/M01 A2967 RMK AO2 PK WND 14029/2328 SLP053 T01501011 10161 20111 53008 TSNO
  • 022253Z AUTO 15018G28KT 10SM CLR 16/M01 A2966 RMK AO2 PK WND 15031/2224 SLP050 T01561006 TSNO

TAF PAGK
Valide du 03 à 00h jusqu'au 04 à 00h UTC


022321Z 0300/0324 16015G25KT P6SM SCT060 BKN100
FM030800 16010KT P6SM SCT060 BKN100
FIR PAZA / Amérique du Nord



MET'MAP, la Météo Aéronautique d'un coup d'oeil ! - Copyright ORBIFLY Décembre 2007 - Disclaimer

ORBIFLY MET'MAP TEAM :

Programmation & Développement : Alexandra Zaïnal
Sur une idée originale de : Baudouin d'Aumeries
Assistance à la programmation : Marc-Olivier Méhu
Soutien technique & logistique : Manuel Goepfert

Contact : metmap@orbifly.com




SOURCES & CREDITS :

   NOAA       Earth
Advisory